Briefing drone pour Poisy

Rechercher une autre localisation

Conditions de vol :


Nous sommes le : Vendredi 25 juin 2021
Il est 23:50 UTC (01:50 LT)

Lever de soleil : 03:20 UTC (05:20 LT)
Coucher de soleil : 19:56 UTC (21:56 LT)

Météo

L'essentiel des conditions de vol

VIGILANCE MÉTÉO FRANCE - Haute-Savoie (74)
Vigilance Jaune : Orages
CARTE TEMSI
CARTES DES FRONTS
METAR de LFLP
LFLP 242330Z AUTO 32003KT 9999 FEW016 BKN062 14/13 Q1023

Date d'émission: 24/06/2021
Heure d'émission: 23:30 UTC
Vent: 320° pour 3 KT (6 km/h)
Visibilité horizontale: > 10 km
Plafond :
- Peu de nuages à 1600ft (488m)
- Nuages morcelés à 6200ft (1890m)
Température: 14 °C
Point de rosée: 13 °C
Humidité: 94%
Pression (QNH): 1023 hPa
TAF de LFLP
AMD LFLP 241904Z 2419/2515 CNL

Conditions prévues :

Heure d'émission : Bulletin éffectué le 24 à 19:00 UTC
Prévision : Valide du 24 a 19:00 UTC au 25 a 15:00 UTC
Nuages : à 0ft (0 m)
WEBCAM POUR POISY

Réglementation

Voler en sécurité

CARTES AERONAUTIQUE 1/500.000
CARTE AZBA (Reseau basse altitude)
CARTES VAC (LFLP)
SUP AIP




Chargement des AIP...
NOTAM (POISY + Terrain à proximité / FIR )




Chargement des NOTAMS...
CONTACT PREFECTURE 74


Avertissement : Les données mises à disposition sont indicatives. Oxygène Drone ne pourra être tenu responsable de dégâts causés aux biens et aux personnes.